createdAt,value
2019-01-24T00:01:13.399Z,67.60
2019-01-24T00:03:17.085Z,67.90
2019-01-24T00:05:20.997Z,68.40
2019-01-24T00:07:24.674Z,68.20
2019-01-24T00:09:28.368Z,67.50
2019-01-24T00:11:32.034Z,67.90
2019-01-24T00:13:35.727Z,67.60
2019-01-24T00:15:39.383Z,68.00
2019-01-24T00:17:43.042Z,68.00
2019-01-24T00:19:46.942Z,67.90
2019-01-24T00:21:50.605Z,67.20
2019-01-24T00:23:54.307Z,66.90
2019-01-24T00:25:57.971Z,67.30
2019-01-24T00:28:01.638Z,67.20
2019-01-24T00:30:13.133Z,67.10
2019-01-24T00:32:16.789Z,67.00
2019-01-24T00:34:23.323Z,66.90
2019-01-24T00:36:25.957Z,67.30
2019-01-24T00:38:29.628Z,67.60
2019-01-24T00:40:33.288Z,67.40
2019-01-24T00:42:36.956Z,67.30
2019-01-24T00:44:40.659Z,67.10
2019-01-24T00:46:44.318Z,66.90
2019-01-24T00:48:47.978Z,67.30
2019-01-24T00:50:51.665Z,68.10
2019-01-24T00:52:55.346Z,68.10
2019-01-24T00:54:59.034Z,68.30
2019-01-24T00:57:02.747Z,68.60
2019-01-24T00:59:06.414Z,68.20
2019-01-24T01:01:10.212Z,67.60
2019-01-24T01:03:13.875Z,66.90
2019-01-24T01:05:17.569Z,67.30
2019-01-24T01:07:21.226Z,67.90
2019-01-24T01:09:24.898Z,68.00
2019-01-24T01:11:28.611Z,67.70
2019-01-24T01:13:32.365Z,67.40
2019-01-24T01:15:36.175Z,67.80
2019-01-24T01:17:39.812Z,68.00
2019-01-24T01:19:43.473Z,67.70
2019-01-24T01:21:47.152Z,67.50
2019-01-24T01:23:50.820Z,67.40
2019-01-24T01:25:54.500Z,66.80
2019-01-24T01:27:58.165Z,67.10
2019-01-24T01:30:01.835Z,67.60
2019-01-24T01:32:05.617Z,67.80
2019-01-24T01:34:09.279Z,67.20
2019-01-24T01:36:12.971Z,67.50
2019-01-24T01:38:17.466Z,67.40
2019-01-24T01:40:21.277Z,67.40
2019-01-24T01:42:25.010Z,67.50
2019-01-24T01:44:28.710Z,67.40
2019-01-24T01:46:32.407Z,67.80
2019-01-24T01:48:36.074Z,67.60
2019-01-24T01:50:39.731Z,66.70
2019-01-24T01:52:43.431Z,66.70
2019-01-24T01:54:47.073Z,67.50
2019-01-24T01:56:50.770Z,67.90
2019-01-24T01:58:54.426Z,67.80
2019-01-24T02:00:58.089Z,67.60
2019-01-24T02:03:01.778Z,67.20
2019-01-24T02:05:08.134Z,66.90
2019-01-24T02:07:11.827Z,66.40
2019-01-24T02:09:15.520Z,66.00
2019-01-24T02:11:19.278Z,66.90
2019-01-24T02:13:22.979Z,66.80
2019-01-24T02:15:26.640Z,67.00
2019-01-24T02:17:30.341Z,67.00
2019-01-24T02:19:34.013Z,67.60
2019-01-24T02:21:37.767Z,67.50
2019-01-24T02:23:41.479Z,66.70
2019-01-24T02:25:45.135Z,66.70
2019-01-24T02:27:48.874Z,66.10
2019-01-24T02:29:52.540Z,65.90
2019-01-24T02:31:56.203Z,65.70
2019-01-24T02:33:59.874Z,65.50
2019-01-24T02:36:03.546Z,66.00
2019-01-24T02:38:07.263Z,66.00
2019-01-24T02:40:11.425Z,65.70
2019-01-24T02:42:15.095Z,65.60
2019-01-24T02:44:18.793Z,65.60
2019-01-24T02:46:22.454Z,66.00
2019-01-24T02:48:26.152Z,65.70
2019-01-24T02:50:29.823Z,66.40
2019-01-24T02:52:33.492Z,67.10
2019-01-24T02:54:37.178Z,67.50
2019-01-24T02:56:40.839Z,67.80
2019-01-24T02:58:44.503Z,67.60
2019-01-24T03:00:48.274Z,67.70
2019-01-24T03:02:52.031Z,67.30
2019-01-24T03:04:57.103Z,67.30
2019-01-24T03:07:00.857Z,67.30
2019-01-24T03:09:06.431Z,66.90
2019-01-24T03:11:10.123Z,67.10
2019-01-24T03:13:13.775Z,67.30
2019-01-24T03:15:19.220Z,67.50
2019-01-24T03:17:22.889Z,67.50
2019-01-24T03:19:26.548Z,67.30
2019-01-24T03:21:30.247Z,67.00
2019-01-24T03:23:33.894Z,67.00
2019-01-24T03:25:37.596Z,66.70
2019-01-24T03:27:41.258Z,66.40
2019-01-24T03:29:44.937Z,65.90
2019-01-24T03:31:48.619Z,65.40
2019-01-24T03:33:52.355Z,65.40
2019-01-24T03:35:56.039Z,65.10
2019-01-24T03:37:59.703Z,64.80
2019-01-24T03:40:03.473Z,64.60
2019-01-24T03:42:07.171Z,64.70
2019-01-24T03:44:10.840Z,65.20
2019-01-24T03:46:14.524Z,65.50
2019-01-24T03:48:18.191Z,65.90
2019-01-24T03:50:22.651Z,66.00
2019-01-24T03:52:26.324Z,66.50
2019-01-24T03:54:29.986Z,66.60
2019-01-24T03:56:33.709Z,66.70
2019-01-24T03:58:37.366Z,66.60
2019-01-24T04:00:41.034Z,66.90
2019-01-24T04:02:44.742Z,66.90
2019-01-24T04:04:48.493Z,66.80
2019-01-24T04:06:52.456Z,67.50
2019-01-24T04:08:56.135Z,67.40
2019-01-24T04:10:59.922Z,67.60
2019-01-24T04:13:03.603Z,67.10
2019-01-24T04:15:10.463Z,67.80
2019-01-24T04:17:14.126Z,67.40
2019-01-24T04:19:17.825Z,67.70
2019-01-24T04:21:21.483Z,68.00
2019-01-24T04:23:25.186Z,67.70
2019-01-24T04:25:28.923Z,67.40
2019-01-24T04:27:32.611Z,67.30
2019-01-24T04:29:36.357Z,67.00
2019-01-24T04:31:40.022Z,66.70
2019-01-24T04:33:43.725Z,66.70
2019-01-24T04:35:47.397Z,66.40
2019-01-24T04:37:51.098Z,66.70
2019-01-24T04:39:54.885Z,66.50
2019-01-24T04:41:58.542Z,66.40
2019-01-24T04:44:02.259Z,66.50
2019-01-24T04:46:05.915Z,66.60
2019-01-24T04:48:09.589Z,66.90
2019-01-24T04:50:15.295Z,67.20
2019-01-24T04:52:18.972Z,67.30
2019-01-24T04:54:22.671Z,67.10
2019-01-24T04:56:26.322Z,67.00
2019-01-24T04:58:30.076Z,67.30
2019-01-24T05:00:33.772Z,67.00
2019-01-24T05:02:37.442Z,66.60
2019-01-24T05:04:41.163Z,66.50
2019-01-24T05:06:44.827Z,66.80
2019-01-24T05:08:48.502Z,66.60
2019-01-24T05:10:52.185Z,66.40
2019-01-24T05:12:55.850Z,66.20
2019-01-24T05:14:59.537Z,66.40
2019-01-24T05:17:03.199Z,66.60
2019-01-24T05:19:06.951Z,66.60
2019-01-24T05:21:10.645Z,66.40
2019-01-24T05:23:14.295Z,66.70
2019-01-24T05:25:18.103Z,67.40
2019-01-24T05:27:21.768Z,67.90
2019-01-24T05:29:25.425Z,67.50
2019-01-24T05:31:29.121Z,67.30
2019-01-24T05:33:32.782Z,67.00
2019-01-24T05:35:36.521Z,67.10
2019-01-24T05:37:40.295Z,67.20
2019-01-24T05:39:43.949Z,67.10
2019-01-24T05:41:47.636Z,67.20
2019-01-24T05:43:51.332Z,67.00
2019-01-24T05:45:55.017Z,67.00
2019-01-24T05:47:58.688Z,67.00
2019-01-24T05:50:02.380Z,66.90
2019-01-24T05:52:06.042Z,66.10
2019-01-24T05:54:09.715Z,67.20
2019-01-24T05:56:13.415Z,67.00
2019-01-24T05:58:17.067Z,67.40
2019-01-24T06:00:22.808Z,67.30
2019-01-24T06:02:26.746Z,67.20
2019-01-24T06:04:30.411Z,66.70
2019-01-24T06:06:34.205Z,66.10
2019-01-24T06:08:37.914Z,65.80
2019-01-24T06:10:41.596Z,65.50
2019-01-24T06:12:45.381Z,65.40
2019-01-24T06:14:49.037Z,65.10
2019-01-24T06:16:52.715Z,65.20
2019-01-24T06:18:56.398Z,65.40
2019-01-24T06:21:00.074Z,65.40
2019-01-24T06:23:03.759Z,65.90
2019-01-24T06:25:09.992Z,65.40
2019-01-24T06:27:13.672Z,65.50
2019-01-24T06:29:17.354Z,65.70
2019-01-24T06:31:21.025Z,65.20
2019-01-24T06:33:24.818Z,65.30
2019-01-24T06:35:28.476Z,65.40
2019-01-24T06:37:32.142Z,65.20
2019-01-24T06:39:35.950Z,65.00
2019-01-24T06:41:39.628Z,65.00
2019-01-24T06:43:43.364Z,64.90
2019-01-24T06:45:47.019Z,64.50
2019-01-24T06:47:50.674Z,64.60
2019-01-24T06:49:54.370Z,64.50
2019-01-24T06:51:58.030Z,64.30
2019-01-24T06:54:01.715Z,64.40
2019-01-24T06:56:05.383Z,64.50
2019-01-24T06:58:09.113Z,64.60
2019-01-24T07:00:15.770Z,65.00
2019-01-24T07:02:19.477Z,65.20
2019-01-24T07:04:23.258Z,65.80
2019-01-24T07:06:26.914Z,65.90
2019-01-24T07:08:30.578Z,66.20
2019-01-24T07:10:34.265Z,66.00
2019-01-24T07:12:37.928Z,65.50
2019-01-24T07:14:41.830Z,64.60
2019-01-24T07:16:45.497Z,64.40
2019-01-24T07:18:49.166Z,65.00
2019-01-24T07:20:52.843Z,64.90
2019-01-24T07:22:56.502Z,65.60
2019-01-24T07:25:00.208Z,65.60
2019-01-24T07:27:03.854Z,65.20
2019-01-24T07:29:07.508Z,65.40
2019-01-24T07:31:11.199Z,65.20
2019-01-24T07:33:14.868Z,64.80
2019-01-24T07:35:19.947Z,65.10
2019-01-24T07:37:23.624Z,65.50
2019-01-24T07:39:27.286Z,65.40
2019-01-24T07:41:31.057Z,65.70
2019-01-24T07:43:34.710Z,65.90
2019-01-24T07:45:40.003Z,66.50
2019-01-24T07:47:43.681Z,67.40
2019-01-24T07:49:47.339Z,67.00
2019-01-24T07:51:51.028Z,67.50
2019-01-24T07:53:54.694Z,67.80
2019-01-24T07:55:58.406Z,67.50
2019-01-24T07:58:02.072Z,67.70
2019-01-24T08:00:20.024Z,67.60
2019-01-24T08:02:23.707Z,67.60
2019-01-24T08:04:27.364Z,68.50
2019-01-24T08:06:31.053Z,68.20
2019-01-24T08:08:34.723Z,68.10
2019-01-24T08:10:38.391Z,68.00
2019-01-24T08:12:42.090Z,68.00
2019-01-24T08:14:45.740Z,67.40
2019-01-24T08:16:49.441Z,67.30
2019-01-24T08:18:53.219Z,67.90
2019-01-24T08:20:56.874Z,68.30
2019-01-24T08:23:00.569Z,67.70
2019-01-24T08:25:05.623Z,66.60
2019-01-24T08:27:09.312Z,66.70
2019-01-24T08:29:12.958Z,66.90
2019-01-24T08:31:16.623Z,66.10
2019-01-24T08:33:20.338Z,65.80
2019-01-24T08:35:24.208Z,65.70
2019-01-24T08:37:28.042Z,66.30
2019-01-24T08:39:31.755Z,66.00
2019-01-24T08:41:35.425Z,67.00
2019-01-24T08:43:39.123Z,67.20
2019-01-24T08:45:42.803Z,66.90
2019-01-24T08:47:46.454Z,66.50
2019-01-24T08:49:50.141Z,67.00
2019-01-24T08:51:53.810Z,67.40
2019-01-24T08:53:57.495Z,67.90
2019-01-24T08:56:01.163Z,67.50
2019-01-24T08:58:05.448Z,67.10
2019-01-24T09:00:20.503Z,66.60
2019-01-24T09:02:24.176Z,67.30
2019-01-24T09:04:27.862Z,68.00
2019-01-24T09:06:31.525Z,67.60
2019-01-24T09:08:35.199Z,67.80
2019-01-24T09:10:39.084Z,67.40
2019-01-24T09:12:42.738Z,66.80
2019-01-24T09:14:46.440Z,66.30
2019-01-24T09:16:50.103Z,66.00
2019-01-24T09:18:53.790Z,65.80
2019-01-24T09:20:57.467Z,66.50
2019-01-24T09:23:01.130Z,68.30
2019-01-24T09:25:07.031Z,68.70
2019-01-24T09:27:11.842Z,68.80
2019-01-24T09:29:15.548Z,69.00
2019-01-24T09:31:19.212Z,68.90
2019-01-24T09:33:22.881Z,68.60
2019-01-24T09:35:26.570Z,68.80
2019-01-24T09:37:30.298Z,69.20
2019-01-24T09:39:34.002Z,69.00
2019-01-24T09:41:37.678Z,68.80
2019-01-24T09:43:41.350Z,68.70
2019-01-24T09:45:45.047Z,67.80
2019-01-24T09:47:48.809Z,66.70
2019-01-24T09:49:52.492Z,66.60
2019-01-24T09:51:56.167Z,67.30
2019-01-24T09:53:59.824Z,67.80
2019-01-24T09:56:03.508Z,67.60
2019-01-24T09:58:07.193Z,68.40
2019-01-24T10:00:13.939Z,67.70
2019-01-24T10:02:17.622Z,67.30
2019-01-24T10:04:21.312Z,66.90
2019-01-24T10:06:25.091Z,66.70
2019-01-24T10:08:28.825Z,66.40
2019-01-24T10:10:32.527Z,66.30
2019-01-24T10:12:36.221Z,66.30
2019-01-24T10:14:39.892Z,67.20
2019-01-24T10:16:43.589Z,67.10
2019-01-24T10:18:47.266Z,67.20
2019-01-24T10:20:50.942Z,66.40
2019-01-24T10:22:54.828Z,66.30
2019-01-24T10:24:58.575Z,66.40
2019-01-24T10:27:02.271Z,66.30
2019-01-24T10:29:05.952Z,65.70
2019-01-24T10:31:09.633Z,67.00
2019-01-24T10:33:13.331Z,67.10
2019-01-24T10:35:17.394Z,66.30
2019-01-24T10:37:21.081Z,66.40
2019-01-24T10:39:24.753Z,66.50
2019-01-24T10:41:28.422Z,66.30
2019-01-24T10:43:32.115Z,66.50
2019-01-24T10:45:35.786Z,66.60
2019-01-24T10:47:39.456Z,65.40
2019-01-24T10:49:43.178Z,64.10
2019-01-24T10:51:46.838Z,64.00
2019-01-24T10:53:50.529Z,64.30
2019-01-24T10:55:54.183Z,63.90
2019-01-24T10:57:59.473Z,63.60
2019-01-24T11:00:03.376Z,63.30
2019-01-24T11:02:07.330Z,63.60
2019-01-24T11:04:11.167Z,64.50
2019-01-24T11:06:14.824Z,63.90
2019-01-24T11:08:18.554Z,62.80
2019-01-24T11:10:22.515Z,64.20
2019-01-24T11:12:26.175Z,64.60
2019-01-24T11:14:30.047Z,64.30
2019-01-24T11:16:33.702Z,65.00
2019-01-24T11:18:37.378Z,64.20
2019-01-24T11:20:41.040Z,64.40
2019-01-24T11:22:44.706Z,64.30
2019-01-24T11:24:48.396Z,64.80
2019-01-24T11:26:52.063Z,63.60
2019-01-24T11:28:55.978Z,63.50
2019-01-24T11:30:59.647Z,64.10
2019-01-24T11:33:03.326Z,63.00
2019-01-24T11:35:10.026Z,62.80
2019-01-24T11:37:13.717Z,63.20
2019-01-24T11:39:17.419Z,63.30
2019-01-24T11:41:21.199Z,62.30
2019-01-24T11:43:24.857Z,62.50
2019-01-24T11:45:33.943Z,62.70
2019-01-24T11:47:37.614Z,63.30
2019-01-24T11:49:41.301Z,63.90
2019-01-24T11:51:44.973Z,65.20
2019-01-24T11:53:53.073Z,65.90
2019-01-24T11:55:54.031Z,67.40
2019-01-24T11:57:57.738Z,67.80
2019-01-24T12:00:01.436Z,67.70
2019-01-24T12:02:05.362Z,67.90
2019-01-24T12:04:09.059Z,66.40
2019-01-24T12:06:12.743Z,66.90
2019-01-24T12:08:16.435Z,66.90
2019-01-24T12:10:22.863Z,67.80
2019-01-24T12:12:26.657Z,67.30
2019-01-24T12:14:30.327Z,67.90
2019-01-24T12:16:33.994Z,67.40
2019-01-24T12:18:37.667Z,66.90
2019-01-24T12:20:41.344Z,66.20
2019-01-24T12:22:45.003Z,65.70
2019-01-24T12:24:48.658Z,67.40
2019-01-24T12:26:52.338Z,66.30
2019-01-24T12:28:55.998Z,65.50
2019-01-24T12:30:59.701Z,67.40
2019-01-24T12:33:03.953Z,67.70
2019-01-24T12:35:09.312Z,67.80
2019-01-24T12:37:13.006Z,67.50
2019-01-24T12:39:16.667Z,67.50
2019-01-24T12:41:20.376Z,66.70
2019-01-24T12:43:24.039Z,67.30
2019-01-24T12:45:33.110Z,66.80
2019-01-24T12:47:36.899Z,66.20
2019-01-24T12:49:40.560Z,66.30
2019-01-24T12:51:44.264Z,67.60
2019-01-24T12:53:47.920Z,67.20
2019-01-24T12:55:51.578Z,66.10
2019-01-24T12:57:55.267Z,67.20
2019-01-24T12:59:59.816Z,66.50
2019-01-24T13:02:03.975Z,66.50
2019-01-24T13:04:07.672Z,65.70
2019-01-24T13:06:11.332Z,66.70
2019-01-24T13:08:15.191Z,65.40
2019-01-24T13:10:21.221Z,66.40
2019-01-24T13:12:24.878Z,66.50
2019-01-24T13:14:28.656Z,65.80
2019-01-24T13:16:32.319Z,65.30
2019-01-24T13:18:36.034Z,65.60
2019-01-24T13:20:39.686Z,63.90
2019-01-24T13:22:44.054Z,65.80
2019-01-24T13:24:47.742Z,66.30
2019-01-24T13:26:51.407Z,66.10
2019-01-24T13:28:55.088Z,65.80
2019-01-24T13:30:58.762Z,65.30
2019-01-24T13:33:02.843Z,66.50
2019-01-24T13:35:06.506Z,68.90
2019-01-24T13:37:10.165Z,69.20
2019-01-24T13:39:14.200Z,68.40
2019-01-24T13:41:17.855Z,66.60
2019-01-24T13:43:21.521Z,66.40
2019-01-24T13:45:30.107Z,65.90
2019-01-24T13:47:33.806Z,65.80
2019-01-24T13:49:37.518Z,65.80
2019-01-24T13:51:42.211Z,65.80
2019-01-24T13:53:45.870Z,66.40
2019-01-24T13:55:49.551Z,66.00
2019-01-24T13:57:53.230Z,66.00
2019-01-24T13:59:56.910Z,66.50
2019-01-24T14:02:00.599Z,65.30
2019-01-24T14:04:07.336Z,65.80
2019-01-24T14:06:11.006Z,66.10
2019-01-24T14:08:14.681Z,65.70
2019-01-24T14:10:18.761Z,64.80
2019-01-24T14:12:22.439Z,64.20
2019-01-24T14:14:26.099Z,63.60
2019-01-24T14:16:29.787Z,64.90
2019-01-24T14:18:33.642Z,63.90
2019-01-24T14:20:37.340Z,64.60
2019-01-24T14:22:41.186Z,65.10
2019-01-24T14:24:44.838Z,64.50
2019-01-24T14:26:48.554Z,63.10
2019-01-24T14:28:52.221Z,64.50
2019-01-24T14:30:55.896Z,65.20
2019-01-24T14:32:59.636Z,65.50
2019-01-24T14:35:03.693Z,64.00
2019-01-24T14:37:07.495Z,63.80
2019-01-24T14:39:11.275Z,64.50
2019-01-24T14:41:14.968Z,64.40
2019-01-24T14:43:18.621Z,63.90
2019-01-24T14:45:27.362Z,63.20
2019-01-24T14:47:31.149Z,62.00
2019-01-24T14:49:34.820Z,62.40
2019-01-24T14:51:38.541Z,62.00
2019-01-24T14:53:42.201Z,61.70
2019-01-24T14:55:45.870Z,60.90
2019-01-24T14:57:49.854Z,61.10
2019-01-24T14:59:53.518Z,61.20
2019-01-24T15:01:57.208Z,64.40
2019-01-24T15:04:00.880Z,63.40
2019-01-24T15:06:05.150Z,62.60
2019-01-24T15:08:08.838Z,63.40
2019-01-24T15:10:15.021Z,64.00
2019-01-24T15:12:18.720Z,63.90
2019-01-24T15:14:22.515Z,62.90
2019-01-24T15:16:26.192Z,63.80
2019-01-24T15:18:29.897Z,63.00
2019-01-24T15:20:33.583Z,63.20
2019-01-24T15:22:37.242Z,63.00
2019-01-24T15:24:40.934Z,62.70
2019-01-24T15:26:44.607Z,63.00
2019-01-24T15:28:48.467Z,61.40
2019-01-24T15:30:52.123Z,63.00
2019-01-24T15:32:55.805Z,62.80
2019-01-24T15:34:59.491Z,61.90
2019-01-24T15:37:03.170Z,62.00
2019-01-24T15:39:07.266Z,62.30
2019-01-24T15:41:10.922Z,61.50
2019-01-24T15:43:14.585Z,62.10
2019-01-24T15:45:18.837Z,61.20
2019-01-24T15:47:22.537Z,61.20
2019-01-24T15:49:26.230Z,61.90
2019-01-24T15:51:29.950Z,61.70
2019-01-24T15:53:33.644Z,61.80
2019-01-24T15:55:37.313Z,61.10
2019-01-24T15:57:40.976Z,61.70
2019-01-24T15:59:44.673Z,62.80
2019-01-24T16:01:49.727Z,62.70
2019-01-24T16:03:53.403Z,62.70
2019-01-24T16:05:57.097Z,62.10
2019-01-24T16:08:01.874Z,61.80
2019-01-24T16:10:08.904Z,61.60
2019-01-24T16:12:12.575Z,61.20
2019-01-24T16:14:16.263Z,61.10
2019-01-24T16:16:19.919Z,61.70
2019-01-24T16:18:23.578Z,61.10
2019-01-24T16:20:28.871Z,62.60
2019-01-24T16:22:32.552Z,62.50
2019-01-24T16:24:36.203Z,61.80
2019-01-24T16:26:39.899Z,62.30
2019-01-24T16:28:43.575Z,63.20
2019-01-24T16:30:47.262Z,63.60
2019-01-24T16:32:50.931Z,63.00
2019-01-24T16:34:54.614Z,62.70
2019-01-24T16:36:58.302Z,63.10
2019-01-24T16:39:01.983Z,62.40
2019-01-24T16:41:05.665Z,62.90
2019-01-24T16:43:09.392Z,63.00
2019-01-24T16:45:21.208Z,63.60
2019-01-24T16:47:24.902Z,62.90
2019-01-24T16:49:28.652Z,61.90
2019-01-24T16:51:32.310Z,62.30
2019-01-24T16:53:36.009Z,62.00
2019-01-24T16:55:39.669Z,62.30
2019-01-24T16:57:43.367Z,61.70
2019-01-24T16:59:47.038Z,62.40
2019-01-24T17:01:50.737Z,63.00
2019-01-24T17:03:54.400Z,63.30
2019-01-24T17:05:58.063Z,63.30
2019-01-24T17:08:01.764Z,63.50
2019-01-24T17:10:11.402Z,63.00
2019-01-24T17:12:15.229Z,62.60
2019-01-24T17:14:22.392Z,63.20
2019-01-24T17:16:24.338Z,62.40
2019-01-24T17:18:28.002Z,62.70
2019-01-24T17:20:32.062Z,62.50
2019-01-24T17:22:35.763Z,62.30
2019-01-24T17:24:39.689Z,62.40
2019-01-24T17:26:43.352Z,62.70
2019-01-24T17:28:47.059Z,62.40
2019-01-24T17:30:50.739Z,63.20
2019-01-24T17:32:54.433Z,63.30
2019-01-24T17:34:58.123Z,62.80
2019-01-24T17:37:01.794Z,62.50
2019-01-24T17:39:08.215Z,62.30
2019-01-24T17:41:11.946Z,62.00
2019-01-24T17:43:15.639Z,62.70
2019-01-24T17:45:19.361Z,62.90
2019-01-24T17:47:23.019Z,62.10
2019-01-24T17:49:26.706Z,62.40
2019-01-24T17:51:30.370Z,63.40
2019-01-24T17:53:34.163Z,62.10
2019-01-24T17:55:40.548Z,62.10
2019-01-24T17:57:44.175Z,61.80
2019-01-24T17:59:47.854Z,62.30
2019-01-24T18:01:51.510Z,62.60
2019-01-24T18:03:55.193Z,63.30
2019-01-24T18:05:58.848Z,63.70
2019-01-24T18:08:02.501Z,63.20
2019-01-24T18:10:14.215Z,62.60
2019-01-24T18:12:17.510Z,62.80
2019-01-24T18:14:21.264Z,62.10
2019-01-24T18:16:24.925Z,63.30
2019-01-24T18:18:28.578Z,63.70
2019-01-24T18:20:36.733Z,63.30
2019-01-24T18:22:40.489Z,63.20
2019-01-24T18:24:44.156Z,64.20
2019-01-24T18:26:47.848Z,64.70
2019-01-24T18:28:51.632Z,65.50
2019-01-24T18:30:55.315Z,65.90
2019-01-24T18:32:58.993Z,65.90
2019-01-24T18:35:02.708Z,65.70
2019-01-24T18:37:06.537Z,65.70
2019-01-24T18:39:10.541Z,67.00
2019-01-24T18:41:14.254Z,66.50
2019-01-24T18:43:18.785Z,66.30
2019-01-24T18:45:28.796Z,65.40
2019-01-24T18:47:32.499Z,67.90
2019-01-24T18:49:36.151Z,68.70
2019-01-24T18:51:39.848Z,68.70
2019-01-24T18:53:43.514Z,68.40
2019-01-24T18:55:47.338Z,67.60
2019-01-24T18:57:51.859Z,67.90
2019-01-24T18:59:55.529Z,68.60
2019-01-24T19:02:00.539Z,69.30
2019-01-24T19:04:04.958Z,68.70
2019-01-24T19:06:08.626Z,67.70
2019-01-24T19:08:12.518Z,68.30
2019-01-24T19:10:16.288Z,68.00
2019-01-24T19:12:19.990Z,67.10
2019-01-24T19:14:23.652Z,67.60
2019-01-24T19:16:27.694Z,68.40
2019-01-24T19:18:31.380Z,67.80
2019-01-24T19:20:35.254Z,68.60
2019-01-24T19:22:38.959Z,69.00
2019-01-24T19:24:42.624Z,68.10
2019-01-24T19:26:46.450Z,68.40
2019-01-24T19:28:50.145Z,68.10
2019-01-24T19:30:53.826Z,67.80
2019-01-24T19:32:57.528Z,68.20
2019-01-24T19:35:01.191Z,67.20
2019-01-24T19:37:05.080Z,67.40
2019-01-24T19:39:09.397Z,68.70
2019-01-24T19:41:13.060Z,68.50
2019-01-24T19:43:16.767Z,68.50
2019-01-24T19:45:22.323Z,67.30
2019-01-24T19:47:26.005Z,67.50
2019-01-24T19:49:29.717Z,66.90
2019-01-24T19:51:33.388Z,67.40
2019-01-24T19:53:37.128Z,67.30
2019-01-24T19:55:40.877Z,66.70
2019-01-24T19:57:44.990Z,68.60
2019-01-24T19:59:48.671Z,67.50
2019-01-24T20:01:52.337Z,67.80
2019-01-24T20:03:56.039Z,67.10
2019-01-24T20:05:59.713Z,67.00
2019-01-24T20:08:03.387Z,67.70
2019-01-24T20:10:10.036Z,68.70
2019-01-24T20:12:13.691Z,69.30
2019-01-24T20:14:17.399Z,69.80
2019-01-24T20:16:21.065Z,69.00
2019-01-24T20:18:24.845Z,68.90
2019-01-24T20:20:28.843Z,68.80
2019-01-24T20:22:32.517Z,68.50
2019-01-24T20:24:36.261Z,69.90
2019-01-24T20:26:39.938Z,69.40
2019-01-24T20:28:43.624Z,69.00
2019-01-24T20:30:47.377Z,69.50
2019-01-24T20:32:51.248Z,68.70
2019-01-24T20:34:55.071Z,68.80
2019-01-24T20:36:58.736Z,68.80
2019-01-24T20:39:07.370Z,68.60
2019-01-24T20:41:07.815Z,68.80
2019-01-24T20:43:12.790Z,69.20
2019-01-24T20:45:16.800Z,68.30
2019-01-24T20:47:20.490Z,68.70
2019-01-24T20:49:24.310Z,67.80
2019-01-24T20:51:28.010Z,68.50
2019-01-24T20:53:31.706Z,68.10
2019-01-24T20:55:35.481Z,67.80
2019-01-24T20:57:39.260Z,67.00
2019-01-24T20:59:42.939Z,66.60
2019-01-24T21:01:46.749Z,66.90
2019-01-24T21:03:55.303Z,67.10
2019-01-24T21:05:55.835Z,66.60
2019-01-24T21:07:59.527Z,67.40
2019-01-24T21:10:04.699Z,69.50
2019-01-24T21:12:08.394Z,68.20
2019-01-24T21:14:12.951Z,68.30
2019-01-24T21:16:16.706Z,67.50
2019-01-24T21:18:21.510Z,68.40
2019-01-24T21:20:29.450Z,67.90
2019-01-24T21:22:33.138Z,68.00
2019-01-24T21:24:36.839Z,66.70
2019-01-24T21:26:40.537Z,65.80
2019-01-24T21:28:44.311Z,66.10
2019-01-24T21:30:47.960Z,65.60
2019-01-24T21:32:51.652Z,65.20
2019-01-24T21:34:55.331Z,64.70
2019-01-24T21:36:59.022Z,64.70
2019-01-24T21:39:03.668Z,64.70
2019-01-24T21:41:07.350Z,64.40
2019-01-24T21:43:11.169Z,63.80
2019-01-24T21:45:26.890Z,64.00
2019-01-24T21:47:30.570Z,64.50
2019-01-24T21:49:34.388Z,67.20
2019-01-24T21:51:38.070Z,67.00
2019-01-24T21:53:41.914Z,67.50
2019-01-24T21:55:45.570Z,66.70
2019-01-24T21:57:49.330Z,66.00
2019-01-24T21:59:53.213Z,66.20
2019-01-24T22:01:56.909Z,65.70
2019-01-24T22:04:00.721Z,65.40
2019-01-24T22:06:04.488Z,64.80
2019-01-24T22:08:08.151Z,64.70
2019-01-24T22:10:14.834Z,65.60
2019-01-24T22:12:18.519Z,66.20
2019-01-24T22:14:22.187Z,66.20
2019-01-24T22:16:25.848Z,65.80
2019-01-24T22:18:29.555Z,65.70
2019-01-24T22:20:33.224Z,65.20
2019-01-24T22:22:36.909Z,65.00
2019-01-24T22:24:40.667Z,64.70
2019-01-24T22:26:44.385Z,64.40
2019-01-24T22:28:48.111Z,64.50
2019-01-24T22:30:52.600Z,65.00
2019-01-24T22:32:56.294Z,65.10
2019-01-24T22:34:59.995Z,64.40
2019-01-24T22:37:03.662Z,65.30
2019-01-24T22:39:08.725Z,65.40
2019-01-24T22:41:12.450Z,65.30
2019-01-24T22:43:16.112Z,65.50
2019-01-24T22:45:24.544Z,65.30
2019-01-24T22:47:28.200Z,64.50
2019-01-24T22:49:31.868Z,64.50
2019-01-24T22:51:35.670Z,64.90
2019-01-24T22:53:40.620Z,64.60
2019-01-24T22:55:44.306Z,64.00
2019-01-24T22:57:48.271Z,64.00
2019-01-24T22:59:51.939Z,65.20
2019-01-24T23:01:55.818Z,65.60
2019-01-24T23:03:59.487Z,65.20
2019-01-24T23:06:03.185Z,65.10
2019-01-24T23:08:06.866Z,64.60
2019-01-24T23:10:11.151Z,65.20
2019-01-24T23:12:14.926Z,64.80
2019-01-24T23:14:19.186Z,65.10
2019-01-24T23:16:22.854Z,64.40
2019-01-24T23:18:26.558Z,64.10
2019-01-24T23:20:30.241Z,64.70
2019-01-24T23:22:34.067Z,64.70
2019-01-24T23:24:37.731Z,64.30
2019-01-24T23:26:41.392Z,64.30
2019-01-24T23:28:45.094Z,64.40
2019-01-24T23:30:48.770Z,64.30
2019-01-24T23:32:52.465Z,63.90
2019-01-24T23:34:56.132Z,63.80
2019-01-24T23:36:59.789Z,64.50
2019-01-24T23:39:04.955Z,64.80
2019-01-24T23:41:08.633Z,66.00
2019-01-24T23:43:12.332Z,65.70
2019-01-24T23:45:16.114Z,65.90
2019-01-24T23:47:19.824Z,65.60
2019-01-24T23:49:23.555Z,65.50
2019-01-24T23:51:27.297Z,65.40
2019-01-24T23:53:30.989Z,65.40
2019-01-24T23:55:34.660Z,65.60
2019-01-24T23:57:38.326Z,64.90
2019-01-24T23:59:42.084Z,64.50
